createdAt,value
2022-12-29T00:01:56.665Z,1.70
2022-12-29T00:06:55.630Z,1.80
2022-12-29T00:11:55.687Z,1.50
2022-12-29T00:16:54.471Z,1.73
2022-12-29T00:22:09.989Z,1.67
2022-12-29T00:27:33.594Z,1.67
2022-12-29T00:32:49.617Z,1.80
2022-12-29T00:38:07.950Z,1.80
2022-12-29T00:43:25.424Z,1.60
2022-12-29T00:48:37.908Z,1.50
2022-12-29T00:53:36.983Z,1.27
2022-12-29T00:58:36.868Z,1.13
2022-12-29T01:03:35.577Z,1.80
2022-12-29T01:08:33.861Z,1.90
2022-12-29T01:13:33.056Z,1.57
2022-12-29T01:18:32.805Z,1.80
2022-12-29T01:23:33.587Z,1.70
2022-12-29T01:28:31.876Z,1.77
2022-12-29T01:33:33.167Z,1.63
2022-12-29T01:38:32.812Z,1.70
2022-12-29T01:43:42.514Z,1.50
2022-12-29T01:48:42.640Z,1.30
2022-12-29T01:53:41.082Z,1.50
2022-12-29T01:58:44.261Z,1.20
2022-12-29T02:03:44.696Z,1.67
2022-12-29T02:08:43.910Z,0.80
2022-12-29T02:13:42.443Z,1.47
2022-12-29T02:18:51.178Z,1.60
2022-12-29T02:24:33.511Z,1.37
2022-12-29T02:29:59.879Z,1.30
2022-12-29T02:35:06.572Z,1.20
2022-12-29T02:40:15.430Z,1.43
2022-12-29T02:45:20.410Z,1.23
2022-12-29T02:50:25.212Z,1.30
2022-12-29T02:55:23.746Z,1.40
2022-12-29T03:00:22.189Z,1.10
2022-12-29T03:05:36.133Z,1.47
2022-12-29T03:10:48.442Z,1.10
2022-12-29T03:16:04.874Z,1.23
2022-12-29T03:21:08.767Z,1.30
2022-12-29T03:26:11.320Z,1.17
2022-12-29T03:31:12.311Z,1.00
2022-12-29T03:36:20.398Z,1.27
2022-12-29T03:41:22.778Z,1.10
2022-12-29T03:46:21.055Z,1.10
2022-12-29T03:51:21.609Z,1.10
2022-12-29T03:56:20.955Z,1.20
2022-12-29T04:01:21.328Z,1.07
2022-12-29T04:06:21.536Z,1.10
2022-12-29T04:11:31.276Z,1.43
2022-12-29T04:16:32.912Z,1.17
2022-12-29T04:21:34.281Z,1.40
2022-12-29T04:26:32.698Z,1.57
2022-12-29T04:31:54.825Z,1.27
2022-12-29T04:36:55.001Z,0.80
2022-12-29T04:41:53.799Z,1.13
2022-12-29T04:46:53.955Z,0.93
2022-12-29T04:52:23.297Z,1.03
2022-12-29T04:57:21.865Z,1.00
2022-12-29T05:02:25.256Z,1.07
2022-12-29T05:07:26.984Z,0.93
2022-12-29T05:12:26.581Z,1.00
2022-12-29T05:17:30.096Z,1.00
2022-12-29T05:22:30.603Z,0.90
2022-12-29T05:27:29.087Z,0.83
2022-12-29T05:32:42.151Z,1.07
2022-12-29T05:37:41.865Z,1.10
2022-12-29T05:42:40.477Z,1.20
2022-12-29T05:47:58.924Z,1.10
2022-12-29T05:53:07.775Z,0.80
2022-12-29T05:58:07.546Z,0.90
2022-12-29T06:03:07.257Z,1.10
2022-12-29T06:08:08.198Z,0.90
2022-12-29T06:13:07.743Z,0.90
2022-12-29T06:18:19.434Z,0.90
2022-12-29T06:23:20.817Z,0.90
2022-12-29T06:28:19.254Z,0.87
2022-12-29T06:33:18.769Z,0.90
2022-12-29T06:38:17.211Z,0.90
2022-12-29T06:43:17.166Z,0.93
2022-12-29T06:48:29.712Z,0.77
2022-12-29T06:53:27.980Z,2.10
2022-12-29T07:04:51.163Z,1.10
2022-12-29T07:09:49.354Z,0.90
2022-12-29T07:14:47.848Z,0.90
2022-12-29T07:19:46.348Z,1.03
2022-12-29T07:24:46.191Z,0.80
2022-12-29T07:29:44.666Z,0.70
2022-12-29T07:34:42.768Z,0.70
2022-12-29T07:39:41.563Z,0.80
2022-12-29T07:44:41.495Z,0.67
2022-12-29T07:49:58.759Z,0.70
2022-12-29T07:54:57.103Z,0.60
2022-12-29T08:00:34.138Z,0.50
2022-12-29T08:05:33.010Z,0.70
2022-12-29T08:10:31.202Z,0.60
2022-12-29T08:15:32.504Z,0.80
2022-12-29T08:20:33.098Z,0.70
2022-12-29T08:32:26.561Z,0.60
2022-12-29T08:37:31.070Z,0.60
2022-12-29T08:43:20.488Z,0.60
2022-12-29T08:48:21.077Z,0.60
2022-12-29T08:53:21.586Z,0.50
2022-12-29T08:58:19.741Z,1.00
2022-12-29T09:03:31.452Z,0.70
2022-12-29T09:08:38.483Z,0.50
2022-12-29T09:13:37.269Z,0.70
2022-12-29T09:18:36.083Z,0.80
2022-12-29T09:23:35.834Z,0.73
2022-12-29T09:28:35.582Z,0.63
2022-12-29T09:33:35.329Z,1.43
2022-12-29T09:38:33.488Z,0.80
2022-12-29T09:44:01.676Z,0.70
2022-12-29T09:49:10.814Z,0.60
2022-12-29T09:54:32.991Z,1.20
2022-12-29T09:59:42.997Z,0.63
2022-12-29T10:04:42.807Z,0.90
2022-12-29T10:09:49.772Z,0.70
2022-12-29T10:15:00.617Z,0.80
2022-12-29T10:20:20.940Z,1.00
2022-12-29T10:25:21.991Z,1.00
2022-12-29T10:30:22.015Z,1.03
2022-12-29T10:36:23.511Z,1.10
2022-12-29T10:41:27.871Z,1.10
2022-12-29T10:46:30.960Z,1.07
2022-12-29T10:51:35.502Z,0.70
2022-12-29T10:56:37.221Z,0.60
2022-12-29T11:15:15.714Z,0.83
2022-12-29T11:20:32.744Z,0.90
2022-12-29T11:25:31.496Z,1.00
2022-12-29T11:30:34.491Z,1.00
2022-12-29T11:35:35.272Z,1.40
2022-12-29T11:40:40.029Z,0.97
2022-12-29T11:52:40.494Z,0.80
2022-12-29T11:57:38.814Z,1.10
2022-12-29T12:02:46.660Z,1.27
2022-12-29T12:07:49.526Z,1.17
2022-12-29T12:12:55.441Z,1.10
2022-12-29T12:17:57.600Z,1.27
2022-12-29T12:23:13.799Z,1.27
2022-12-29T12:28:18.003Z,0.90
2022-12-29T12:33:24.865Z,0.70
2022-12-29T12:38:35.089Z,1.00
2022-12-29T12:43:46.559Z,1.00
2022-12-29T12:49:00.937Z,1.00
2022-12-29T12:54:14.928Z,0.93
2022-12-29T12:59:28.078Z,0.90
2022-12-29T13:05:30.728Z,0.70
2022-12-29T13:10:48.351Z,1.20
2022-12-29T13:16:03.873Z,1.60
2022-12-29T13:21:09.324Z,1.10
2022-12-29T13:26:20.296Z,0.70
2022-12-29T13:31:26.118Z,1.40
2022-12-29T13:36:28.895Z,1.20
2022-12-29T13:41:32.988Z,2.13
2022-12-29T13:47:21.251Z,1.03
2022-12-29T13:52:26.979Z,1.43
2022-12-29T13:57:41.479Z,1.67
2022-12-29T14:02:57.064Z,1.30
2022-12-29T14:08:00.642Z,1.27
2022-12-29T14:13:15.189Z,1.00
2022-12-29T14:18:16.958Z,1.00
2022-12-29T14:23:28.045Z,0.93
2022-12-29T14:28:29.659Z,1.00
2022-12-29T14:33:30.681Z,1.13
2022-12-29T14:38:31.428Z,1.43
2022-12-29T14:43:31.164Z,0.67
2022-12-29T14:48:43.384Z,1.00
2022-12-29T14:53:48.458Z,0.87
2022-12-29T14:58:52.653Z,0.70
2022-12-29T15:03:53.648Z,0.90
2022-12-29T15:08:55.409Z,0.80
2022-12-29T15:13:55.024Z,0.80
2022-12-29T15:18:53.311Z,0.80
2022-12-29T15:23:51.789Z,0.60
2022-12-29T15:28:51.379Z,0.80
2022-12-29T15:40:27.174Z,1.10
2022-12-29T15:45:31.590Z,1.20
2022-12-29T15:50:32.124Z,0.90
2022-12-29T15:55:35.203Z,0.80
2022-12-29T16:01:35.292Z,0.93
2022-12-29T16:06:35.384Z,0.67
2022-12-29T16:11:38.960Z,0.90
2022-12-29T16:17:43.228Z,1.10
2022-12-29T16:22:44.809Z,0.80
2022-12-29T16:27:45.883Z,1.10
2022-12-29T16:32:48.863Z,1.17
2022-12-29T16:37:47.929Z,0.90
2022-12-29T16:42:52.702Z,1.13
2022-12-29T16:48:13.190Z,1.30
2022-12-29T16:53:22.139Z,1.67
2022-12-29T16:58:24.860Z,1.40
2022-12-29T17:03:23.252Z,1.40
2022-12-29T17:08:23.986Z,1.57
2022-12-29T17:20:17.749Z,2.07
2022-12-29T17:25:17.359Z,1.50
2022-12-29T17:30:17.555Z,1.20
2022-12-29T17:35:18.215Z,1.67
2022-12-29T17:40:18.425Z,2.20
2022-12-29T17:45:18.627Z,1.40
2022-12-29T17:50:20.314Z,2.30
2022-12-29T17:55:20.307Z,2.30
2022-12-29T18:00:21.018Z,2.50
2022-12-29T18:05:22.467Z,2.07
2022-12-29T18:10:21.346Z,2.40
2022-12-29T18:15:21.807Z,2.00
2022-12-29T18:20:21.401Z,1.60
2022-12-29T18:25:24.937Z,1.70
2022-12-29T18:31:27.788Z,2.10
2022-12-29T18:36:29.008Z,2.40
2022-12-29T18:41:29.651Z,1.80
2022-12-29T18:46:28.428Z,2.57
2022-12-29T18:51:28.124Z,2.10
2022-12-29T18:56:26.277Z,1.90
2022-12-29T19:01:27.734Z,2.53
2022-12-29T19:06:27.636Z,1.73
2022-12-29T19:11:26.081Z,2.27
2022-12-29T19:16:24.998Z,1.53
2022-12-29T19:21:23.903Z,1.40
2022-12-29T19:26:30.631Z,1.80
2022-12-29T19:31:29.228Z,1.83
2022-12-29T19:36:27.781Z,2.10
2022-12-29T19:41:27.661Z,1.73
2022-12-29T19:46:26.548Z,1.40
2022-12-29T19:51:25.391Z,1.57
2022-12-29T19:56:25.050Z,1.20
2022-12-29T20:01:25.881Z,2.00
2022-12-29T20:06:24.593Z,1.73
2022-12-29T20:11:23.216Z,1.97
2022-12-29T20:16:21.646Z,2.00
2022-12-29T20:21:23.353Z,1.60
2022-12-29T20:26:24.768Z,1.30
2022-12-29T20:31:26.996Z,2.30
2022-12-29T20:36:28.803Z,1.87
2022-12-29T20:41:28.184Z,1.87
2022-12-29T20:46:34.002Z,1.70
2022-12-29T20:52:04.342Z,2.30
2022-12-29T20:56:54.484Z,1.30
2022-12-29T21:01:53.083Z,1.77
2022-12-29T21:06:53.059Z,1.70
2022-12-29T21:11:51.656Z,1.43
2022-12-29T21:16:49.924Z,1.57
2022-12-29T21:21:48.570Z,1.40
2022-12-29T21:26:48.975Z,2.50
2022-12-29T21:31:48.225Z,1.23
2022-12-29T21:36:46.649Z,1.17
2022-12-29T21:41:45.191Z,1.60
2022-12-29T21:46:47.211Z,1.13
2022-12-29T21:51:51.566Z,1.20
2022-12-29T21:56:50.276Z,1.33
2022-12-29T22:02:07.028Z,1.57
2022-12-29T22:07:24.095Z,1.10
2022-12-29T22:12:40.177Z,1.03
2022-12-29T22:24:36.066Z,1.47
2022-12-29T22:29:34.260Z,1.20
2022-12-29T22:34:32.733Z,1.03
2022-12-29T22:39:30.879Z,1.37
2022-12-29T22:44:30.746Z,1.30
2022-12-29T22:49:30.401Z,1.10
2022-12-29T22:54:28.739Z,1.37
2022-12-29T22:59:27.356Z,1.37
2022-12-29T23:05:08.449Z,1.10
2022-12-29T23:10:07.685Z,1.23
2022-12-29T23:15:11.027Z,1.10
2022-12-29T23:20:11.740Z,0.90
2022-12-29T23:25:11.109Z,1.40
2022-12-29T23:30:10.406Z,1.77
2022-12-29T23:35:10.939Z,1.43
2022-12-29T23:40:10.196Z,1.77
2022-12-29T23:45:09.636Z,1.97
2022-12-29T23:50:08.888Z,1.60
2022-12-29T23:55:11.224Z,2.10
